createdAt,value
2023-03-21T00:00:04.682Z,59.57
2023-03-21T00:01:03.754Z,59.57
2023-03-21T00:02:03.750Z,59.57
2023-03-21T00:03:03.624Z,60.28
2023-03-21T00:04:03.744Z,60.18
2023-03-21T00:05:15.033Z,59.98
2023-03-21T00:06:04.609Z,59.77
2023-03-21T00:07:03.573Z,59.88
2023-03-21T00:08:03.589Z,59.77
2023-03-21T00:09:03.551Z,59.77
2023-03-21T00:10:14.404Z,59.64
2023-03-21T00:11:04.562Z,59.75
2023-03-21T00:12:03.562Z,59.75
2023-03-21T00:13:03.504Z,59.98
2023-03-21T00:14:03.505Z,60.18
2023-03-21T00:15:03.462Z,60.15
2023-03-21T00:16:06.945Z,60.15
2023-03-21T00:17:04.448Z,60.15
2023-03-21T00:18:03.499Z,60.18
2023-03-21T00:19:03.467Z,60.49
2023-03-21T00:20:03.423Z,60.59
2023-03-21T00:21:33.693Z,61.40
2023-03-21T00:22:07.878Z,62.21
2023-03-21T00:23:03.366Z,62.21
2023-03-21T00:24:03.351Z,62.11
2023-03-21T00:25:03.352Z,62.01
2023-03-21T00:26:03.382Z,61.91
2023-03-21T00:27:29.741Z,61.91
2023-03-21T00:29:04.300Z,62.21
2023-03-21T00:30:03.282Z,62.18
2023-03-21T00:31:03.260Z,63.02
2023-03-21T00:32:03.259Z,63.13
2023-03-21T00:33:12.007Z,63.36
2023-03-21T00:34:04.244Z,63.77
2023-03-21T00:35:29.502Z,63.23
2023-03-21T00:36:05.822Z,62.93
2023-03-21T00:37:03.186Z,62.62
2023-03-21T00:38:03.136Z,62.11
2023-03-21T00:39:03.187Z,61.81
2023-03-21T00:40:03.264Z,61.71
2023-03-21T00:41:11.050Z,61.81
2023-03-21T00:42:04.091Z,61.60
2023-03-21T00:43:03.103Z,61.71
2023-03-21T00:44:03.079Z,61.81
2023-03-21T00:45:03.042Z,61.71
2023-03-21T00:46:03.101Z,62.01
2023-03-21T00:47:07.509Z,62.01
2023-03-21T00:48:04.188Z,61.91
2023-03-21T00:49:03.042Z,61.91
2023-03-21T00:50:02.980Z,61.51
2023-03-21T00:51:02.969Z,61.60
2023-03-21T00:52:15.737Z,61.53
2023-03-21T00:53:03.932Z,61.51
2023-03-21T00:54:02.948Z,61.83
2023-03-21T00:55:02.949Z,62.24
2023-03-21T00:56:02.939Z,62.21
2023-03-21T00:57:02.950Z,62.41
2023-03-21T00:58:02.936Z,63.36
2023-03-21T00:59:02.857Z,64.18
2023-03-21T01:00:02.869Z,64.48
2023-03-21T01:01:02.878Z,64.58
2023-03-21T01:02:02.944Z,64.89
2023-03-21T01:03:14.163Z,64.89
2023-03-21T01:04:03.792Z,64.69
2023-03-21T01:05:02.841Z,64.79
2023-03-21T01:06:02.794Z,64.69
2023-03-21T01:07:02.786Z,64.69
2023-03-21T01:08:05.878Z,64.92
2023-03-21T01:09:03.753Z,64.92
2023-03-21T01:10:02.716Z,64.79
2023-03-21T01:11:02.719Z,64.61
2023-03-21T01:12:02.710Z,64.92
2023-03-21T01:13:02.650Z,64.81
2023-03-21T01:14:18.527Z,64.72
2023-03-21T01:15:03.667Z,64.72
2023-03-21T01:16:02.696Z,64.81
2023-03-21T01:17:02.657Z,64.92
2023-03-21T01:18:02.629Z,64.79
2023-03-21T01:19:05.124Z,64.69
2023-03-21T01:20:02.568Z,64.69
2023-03-21T01:21:02.571Z,64.69
2023-03-21T01:22:02.580Z,64.58
2023-03-21T01:23:02.518Z,64.58
2023-03-21T01:24:02.644Z,64.79
2023-03-21T01:25:19.323Z,64.69
2023-03-21T01:26:03.515Z,65.09
2023-03-21T01:27:02.497Z,64.99
2023-03-21T01:28:02.477Z,64.99
2023-03-21T01:29:02.472Z,65.09
2023-03-21T01:30:02.646Z,65.09
2023-03-21T01:31:02.515Z,65.12
2023-03-21T01:32:02.428Z,65.83
2023-03-21T01:33:02.407Z,66.44
2023-03-21T01:34:02.445Z,67.05
2023-03-21T01:35:02.391Z,67.29
2023-03-21T01:36:12.284Z,67.49
2023-03-21T01:37:03.422Z,67.26
2023-03-21T01:38:02.384Z,67.05
2023-03-21T01:39:02.325Z,66.96
2023-03-21T01:40:02.367Z,66.75
2023-03-21T01:41:06.155Z,66.04
2023-03-21T01:42:03.296Z,65.83
2023-03-21T01:43:02.334Z,65.73
2023-03-21T01:44:02.233Z,65.43
2023-03-21T01:45:02.264Z,65.43
2023-03-21T01:46:02.283Z,65.33
2023-03-21T01:47:17.465Z,65.12
2023-03-21T01:48:03.252Z,65.22
2023-03-21T01:49:02.859Z,65.33
2023-03-21T01:50:02.209Z,65.22
2023-03-21T01:51:02.171Z,65.43
2023-03-21T01:52:11.434Z,65.53
2023-03-21T01:53:03.138Z,65.73
2023-03-21T01:54:02.134Z,65.53
2023-03-21T01:55:02.097Z,65.53
2023-03-21T01:56:02.128Z,65.53
2023-03-21T01:57:02.090Z,65.63
2023-03-21T01:58:06.474Z,65.63
2023-03-21T01:59:03.072Z,65.63
2023-03-21T02:00:02.019Z,65.73
2023-03-21T02:01:02.096Z,65.83
2023-03-21T02:02:02.071Z,65.63
2023-03-21T02:03:11.614Z,65.53
2023-03-21T02:04:02.982Z,65.63
2023-03-21T02:05:01.947Z,65.63
2023-03-21T02:06:01.964Z,65.83
2023-03-21T02:07:01.951Z,65.83
2023-03-21T02:08:01.965Z,65.83
2023-03-21T02:09:01.933Z,65.63
2023-03-21T02:10:01.916Z,65.73
2023-03-21T02:11:01.901Z,66.14
2023-03-21T02:12:01.916Z,66.35
2023-03-21T02:13:01.845Z,66.24
2023-03-21T02:14:06.673Z,66.04
2023-03-21T02:15:02.870Z,66.04
2023-03-21T02:16:01.805Z,65.94
2023-03-21T02:17:01.897Z,65.83
2023-03-21T02:18:01.833Z,65.83
2023-03-21T02:19:01.776Z,66.04
2023-03-21T02:20:01.764Z,65.94
2023-03-21T02:21:01.769Z,66.04
2023-03-21T02:22:01.733Z,65.94
2023-03-21T02:23:01.723Z,66.35
2023-03-21T02:24:01.757Z,66.65
2023-03-21T02:25:06.197Z,66.35
2023-03-21T02:26:02.706Z,66.35
2023-03-21T02:27:04.274Z,66.47
2023-03-21T02:28:01.626Z,66.68
2023-03-21T02:29:01.626Z,66.88
2023-03-21T02:30:01.638Z,66.78
2023-03-21T02:31:01.712Z,66.68
2023-03-21T02:32:16.261Z,66.44
2023-03-21T02:33:02.635Z,66.24
2023-03-21T02:34:01.572Z,66.14
2023-03-21T02:35:01.598Z,66.14
2023-03-21T02:36:13.253Z,66.24
2023-03-21T02:37:02.624Z,66.17
2023-03-21T02:38:01.539Z,66.38
2023-03-21T02:39:01.493Z,66.38
2023-03-21T02:40:01.500Z,66.27
2023-03-21T02:41:03.433Z,66.58
2023-03-21T02:42:01.477Z,66.47
2023-03-21T02:43:01.618Z,66.58
2023-03-21T02:44:01.426Z,66.58
2023-03-21T02:45:01.406Z,66.47
2023-03-21T02:46:01.472Z,66.38
2023-03-21T02:47:05.846Z,66.38
2023-03-21T02:48:01.402Z,66.14
2023-03-21T02:49:01.472Z,66.04
2023-03-21T02:50:01.367Z,65.94
2023-03-21T02:51:01.318Z,65.94
2023-03-21T02:52:12.255Z,65.94
2023-03-21T02:53:02.324Z,65.83
2023-03-21T02:54:24.915Z,65.83
2023-03-21T02:55:02.325Z,65.94
2023-03-21T02:56:01.291Z,65.97
2023-03-21T02:57:01.268Z,66.17
2023-03-21T02:58:12.493Z,66.04
2023-03-21T02:59:02.221Z,66.07
2023-03-21T03:00:10.587Z,66.07
2023-03-21T03:01:02.218Z,66.17
2023-03-21T03:02:01.211Z,65.97
2023-03-21T03:03:09.664Z,66.07
2023-03-21T03:04:02.200Z,66.17
2023-03-21T03:05:02.895Z,66.38
2023-03-21T03:06:02.141Z,66.27
2023-03-21T03:07:01.187Z,66.17
2023-03-21T03:08:01.117Z,66.17
2023-03-21T03:09:02.917Z,66.07
2023-03-21T03:10:01.144Z,65.97
2023-03-21T03:11:01.066Z,65.63
2023-03-21T03:12:01.069Z,65.53
2023-03-21T03:13:01.057Z,65.43
2023-03-21T03:14:15.611Z,65.43
2023-03-21T03:15:03.781Z,65.33
2023-03-21T03:16:01.032Z,65.22
2023-03-21T03:17:00.997Z,65.12
2023-03-21T03:18:00.989Z,64.99
2023-03-21T03:19:01.026Z,64.89
2023-03-21T03:20:07.104Z,64.81
2023-03-21T03:21:02.068Z,64.92
2023-03-21T03:22:00.934Z,64.92
2023-03-21T03:23:00.912Z,64.81
2023-03-21T03:24:00.929Z,64.92
2023-03-21T03:25:04.771Z,65.02
2023-03-21T03:26:01.857Z,65.22
2023-03-21T03:27:00.874Z,65.33
2023-03-21T03:28:00.876Z,65.46
2023-03-21T03:29:00.834Z,65.66
2023-03-21T03:30:00.839Z,65.77
2023-03-21T03:31:09.380Z,66.07
2023-03-21T03:32:01.841Z,66.17
2023-03-21T03:33:00.776Z,66.07
2023-03-21T03:34:09.926Z,65.83
2023-03-21T03:35:00.722Z,65.97
2023-03-21T03:36:05.583Z,66.38
2023-03-21T03:37:01.735Z,66.88
2023-03-21T03:38:00.701Z,67.05
2023-03-21T03:39:00.681Z,67.16
2023-03-21T03:40:00.725Z,67.49
2023-03-21T03:41:00.654Z,67.69
2023-03-21T03:42:12.687Z,67.90
2023-03-21T03:43:01.666Z,67.80
2023-03-21T03:44:00.595Z,67.90
2023-03-21T03:45:00.584Z,67.77
2023-03-21T03:46:00.698Z,67.66
2023-03-21T03:47:00.578Z,67.66
2023-03-21T03:48:00.623Z,68.07
2023-03-21T03:49:00.553Z,68.07
2023-03-21T03:50:00.558Z,67.97
2023-03-21T03:51:00.506Z,67.97
2023-03-21T03:52:00.553Z,67.66
2023-03-21T03:53:02.950Z,67.69
2023-03-21T03:54:01.503Z,67.90
2023-03-21T03:55:00.502Z,67.69
2023-03-21T03:56:00.449Z,67.60
2023-03-21T03:57:00.416Z,67.39
2023-03-21T03:58:00.475Z,67.29
2023-03-21T03:59:00.400Z,67.60
2023-03-21T04:00:00.396Z,67.69
2023-03-21T04:01:00.396Z,67.80
2023-03-21T04:02:00.446Z,67.80
2023-03-21T04:03:00.427Z,67.83
2023-03-21T04:04:12.281Z,68.04
2023-03-21T04:05:01.333Z,68.04
2023-03-21T04:06:00.319Z,68.13
2023-03-21T04:07:00.311Z,68.13
2023-03-21T04:08:00.290Z,68.13
2023-03-21T04:09:03.417Z,68.24
2023-03-21T04:10:01.301Z,68.24
2023-03-21T04:11:00.233Z,68.13
2023-03-21T04:12:00.221Z,68.44
2023-03-21T04:13:00.244Z,68.24
2023-03-21T04:14:00.185Z,68.24
2023-03-21T04:15:10.049Z,68.48
2023-03-21T04:16:01.225Z,68.78
2023-03-21T04:17:00.170Z,68.68
2023-03-21T04:18:00.154Z,68.44
2023-03-21T04:19:00.148Z,68.24
2023-03-21T04:20:10.899Z,68.37
2023-03-21T04:21:01.095Z,68.57
2023-03-21T04:22:00.157Z,68.44
2023-03-21T04:23:00.102Z,68.24
2023-03-21T04:24:00.093Z,68.04
2023-03-21T04:25:00.662Z,68.04
2023-03-21T04:26:00.059Z,67.90
2023-03-21T04:27:00.034Z,67.90
2023-03-21T04:28:00.078Z,67.90
2023-03-21T04:28:59.980Z,68.13
2023-03-21T04:29:59.976Z,68.13
2023-03-21T04:31:05.267Z,68.13
2023-03-21T04:32:01.016Z,68.24
2023-03-21T04:32:59.992Z,68.10
2023-03-21T04:34:00.003Z,68.10
2023-03-21T04:34:59.901Z,68.24
2023-03-21T04:35:59.901Z,68.54
2023-03-21T04:36:59.921Z,68.51
2023-03-21T04:37:59.925Z,68.34
2023-03-21T04:38:59.868Z,68.44
2023-03-21T04:40:00.006Z,68.34
2023-03-21T04:40:59.857Z,68.44
2023-03-21T04:41:59.841Z,68.34
2023-03-21T04:42:59.812Z,68.31
2023-03-21T04:43:59.966Z,68.10
2023-03-21T04:44:59.777Z,68.10
2023-03-21T04:45:59.876Z,67.90
2023-03-21T04:46:59.754Z,67.80
2023-03-21T04:47:59.794Z,67.80
2023-03-21T04:48:59.748Z,67.80
2023-03-21T04:49:59.692Z,67.90
2023-03-21T04:50:59.692Z,68.10
2023-03-21T04:51:59.749Z,68.10
2023-03-21T04:52:59.657Z,68.10
2023-03-21T04:53:59.637Z,68.04
2023-03-21T04:54:59.674Z,68.65
2023-03-21T04:55:59.622Z,68.62
2023-03-21T04:56:59.635Z,68.44
2023-03-21T04:58:09.803Z,68.41
2023-03-21T04:58:59.611Z,68.21
2023-03-21T04:59:59.590Z,68.10
2023-03-21T05:00:59.592Z,68.31
2023-03-21T05:01:59.574Z,68.10
2023-03-21T05:02:59.550Z,68.34
2023-03-21T05:03:59.616Z,68.65
2023-03-21T05:04:59.574Z,68.85
2023-03-21T05:05:59.496Z,68.85
2023-03-21T05:06:59.498Z,68.75
2023-03-21T05:07:59.489Z,68.75
2023-03-21T05:08:59.492Z,68.75
2023-03-21T05:10:01.841Z,68.65
2023-03-21T05:10:59.480Z,68.62
2023-03-21T05:11:59.436Z,68.65
2023-03-21T05:12:59.455Z,68.75
2023-03-21T05:13:59.531Z,68.65
2023-03-21T05:14:59.494Z,68.95
2023-03-21T05:15:59.455Z,69.06
2023-03-21T05:16:59.421Z,69.26
2023-03-21T05:17:59.318Z,69.36
2023-03-21T05:18:59.361Z,69.36
2023-03-21T05:19:59.445Z,69.26
2023-03-21T05:20:59.293Z,69.36
2023-03-21T05:21:59.284Z,69.36
2023-03-21T05:22:59.298Z,69.56
2023-03-21T05:23:59.248Z,69.36
2023-03-21T05:24:59.276Z,69.15
2023-03-21T05:25:59.283Z,69.36
2023-03-21T05:27:01.228Z,69.46
2023-03-21T05:27:59.184Z,69.59
2023-03-21T05:28:59.213Z,69.56
2023-03-21T05:29:59.177Z,69.67
2023-03-21T05:30:59.239Z,69.56
2023-03-21T05:31:59.160Z,69.80
2023-03-21T05:32:59.202Z,69.90
2023-03-21T05:33:59.118Z,70.51
2023-03-21T05:34:59.092Z,70.31
2023-03-21T05:35:59.162Z,70.17
2023-03-21T05:36:59.091Z,70.00
2023-03-21T05:37:59.066Z,70.10
2023-03-21T05:38:59.082Z,70.10
2023-03-21T05:39:59.036Z,70.07
2023-03-21T05:40:59.114Z,69.87
2023-03-21T05:41:59.053Z,69.56
2023-03-21T05:42:59.236Z,69.43
2023-03-21T05:43:59.006Z,69.53
2023-03-21T05:44:58.969Z,69.43
2023-03-21T05:45:58.957Z,69.23
2023-03-21T05:46:59.010Z,69.43
2023-03-21T05:47:58.965Z,69.43
2023-03-21T05:48:58.932Z,69.32
2023-03-21T05:49:58.894Z,69.32
2023-03-21T05:50:58.893Z,69.46
2023-03-21T05:51:58.862Z,69.87
2023-03-21T05:52:58.866Z,69.87
2023-03-21T05:53:58.866Z,69.76
2023-03-21T05:54:58.835Z,69.76
2023-03-21T05:55:58.861Z,69.87
2023-03-21T05:56:58.785Z,69.76
2023-03-21T05:57:58.774Z,69.87
2023-03-21T05:58:58.803Z,70.07
2023-03-21T05:59:58.872Z,70.17
2023-03-21T06:00:58.769Z,70.17
2023-03-21T06:01:58.847Z,70.07
2023-03-21T06:02:58.809Z,69.84
2023-03-21T06:03:58.756Z,69.73
2023-03-21T06:04:58.801Z,69.73
2023-03-21T06:05:58.741Z,69.73
2023-03-21T06:06:58.668Z,69.43
2023-03-21T06:07:58.692Z,69.32
2023-03-21T06:08:58.663Z,69.09
2023-03-21T06:09:58.635Z,69.23
2023-03-21T06:10:58.676Z,69.63
2023-03-21T06:11:58.659Z,69.53
2023-03-21T06:12:58.570Z,69.63
2023-03-21T06:13:58.604Z,69.63
2023-03-21T06:14:58.555Z,69.73
2023-03-21T06:15:58.610Z,69.87
2023-03-21T06:16:58.566Z,70.07
2023-03-21T06:17:58.566Z,70.07
2023-03-21T06:18:58.494Z,70.07
2023-03-21T06:19:58.517Z,70.14
2023-03-21T06:20:58.463Z,69.97
2023-03-21T06:21:58.504Z,69.93
2023-03-21T06:22:58.451Z,69.84
2023-03-21T06:23:58.459Z,69.87
2023-03-21T06:24:58.412Z,70.17
2023-03-21T06:25:58.464Z,70.17
2023-03-21T06:26:58.400Z,70.17
2023-03-21T06:27:58.356Z,70.17
2023-03-21T06:28:58.410Z,70.28
2023-03-21T06:29:58.355Z,70.14
2023-03-21T06:30:58.347Z,70.07
2023-03-21T06:31:58.333Z,70.14
2023-03-21T06:32:58.317Z,69.73
2023-03-21T06:33:58.301Z,69.49
2023-03-21T06:34:58.350Z,69.40
2023-03-21T06:35:58.378Z,69.49
2023-03-21T06:36:58.254Z,69.43
2023-03-21T06:37:58.270Z,69.43
2023-03-21T06:38:58.228Z,69.49
2023-03-21T06:39:58.214Z,69.40
2023-03-21T06:40:58.262Z,69.53
2023-03-21T06:41:58.201Z,69.63
2023-03-21T06:42:58.175Z,69.49
2023-03-21T06:43:58.176Z,69.49
2023-03-21T06:44:58.211Z,69.29
2023-03-21T06:45:58.155Z,69.40
2023-03-21T06:46:58.162Z,69.40
2023-03-21T06:47:58.131Z,69.06
2023-03-21T06:48:58.083Z,68.85
2023-03-21T06:49:58.116Z,68.65
2023-03-21T06:50:58.056Z,68.65
2023-03-21T06:51:58.028Z,68.35
2023-03-21T06:52:58.072Z,68.11
2023-03-21T06:53:58.052Z,68.14
2023-03-21T06:54:57.991Z,68.11
2023-03-21T06:55:58.024Z,67.80
2023-03-21T06:56:57.961Z,67.60
2023-03-21T06:57:57.974Z,67.36
2023-03-21T06:58:57.972Z,67.16
2023-03-21T06:59:57.931Z,67.27
2023-03-21T07:00:57.953Z,67.06
2023-03-21T07:01:57.975Z,66.96
2023-03-21T07:02:57.954Z,66.86
2023-03-21T07:03:57.883Z,66.76
2023-03-21T07:04:57.907Z,66.76
2023-03-21T07:05:57.897Z,66.76
2023-03-21T07:06:57.822Z,66.86
2023-03-21T07:07:57.857Z,66.96
2023-03-21T07:08:57.801Z,67.10
2023-03-21T07:09:57.793Z,67.63
2023-03-21T07:10:57.835Z,67.91
2023-03-21T07:11:57.782Z,67.71
2023-03-21T07:12:57.765Z,67.60
2023-03-21T07:13:57.776Z,67.71
2023-03-21T07:14:57.736Z,67.50
2023-03-21T07:15:57.704Z,67.27
2023-03-21T07:16:57.731Z,66.72
2023-03-21T07:17:57.695Z,66.86
2023-03-21T07:18:57.668Z,66.96
2023-03-21T07:19:57.686Z,66.76
2023-03-21T07:20:57.635Z,66.96
2023-03-21T07:21:57.633Z,67.40
2023-03-21T07:22:57.646Z,67.36
2023-03-21T07:23:57.627Z,67.36
2023-03-21T07:25:04.813Z,67.16
2023-03-21T07:25:58.639Z,67.06
2023-03-21T07:26:57.605Z,67.06
2023-03-21T07:27:57.547Z,67.06
2023-03-21T07:28:57.528Z,66.93
2023-03-21T07:29:57.844Z,66.93
2023-03-21T07:30:57.506Z,67.16
2023-03-21T07:31:57.536Z,67.27
2023-03-21T07:32:57.505Z,66.96
2023-03-21T07:33:57.464Z,67.06
2023-03-21T07:34:57.465Z,67.50
2023-03-21T07:35:57.597Z,67.57
2023-03-21T07:36:57.466Z,67.36
2023-03-21T07:37:57.504Z,67.03
2023-03-21T07:38:57.449Z,66.93
2023-03-21T07:39:57.534Z,66.63
2023-03-21T07:40:57.454Z,66.49
2023-03-21T07:41:57.408Z,66.08
2023-03-21T07:42:57.440Z,65.68
2023-03-21T07:43:57.349Z,65.27
2023-03-21T07:44:57.351Z,65.37
2023-03-21T07:45:57.407Z,65.27
2023-03-21T07:46:57.304Z,65.27
2023-03-21T07:47:57.354Z,64.97
2023-03-21T07:48:57.311Z,64.87
2023-03-21T07:49:57.315Z,65.07
2023-03-21T07:50:57.310Z,65.10
2023-03-21T07:51:57.224Z,65.94
2023-03-21T07:52:57.299Z,65.91
2023-03-21T07:53:57.194Z,65.68
2023-03-21T07:54:57.182Z,65.37
2023-03-21T07:55:57.195Z,65.17
2023-03-21T07:56:57.207Z,65.17
2023-03-21T07:57:57.146Z,65.17
2023-03-21T07:58:57.161Z,64.76
2023-03-21T07:59:57.195Z,65.10
2023-03-21T08:00:57.122Z,65.81
2023-03-21T08:01:57.118Z,65.91
2023-03-21T08:02:59.068Z,66.02
2023-03-21T08:03:57.038Z,66.02
2023-03-21T08:04:57.022Z,65.91
2023-03-21T08:05:57.054Z,65.88
2023-03-21T08:06:57.044Z,65.65
2023-03-21T08:07:57.040Z,65.24
2023-03-21T08:08:57.011Z,64.84
2023-03-21T08:09:57.091Z,64.81
2023-03-21T08:10:56.987Z,64.61
2023-03-21T08:11:56.943Z,64.30
2023-03-21T08:12:56.958Z,64.40
2023-03-21T08:13:56.903Z,64.30
2023-03-21T08:14:59.323Z,64.07
2023-03-21T08:15:56.934Z,64.10
2023-03-21T08:16:56.940Z,63.79
2023-03-21T08:17:56.851Z,63.89
2023-03-21T08:18:56.902Z,64.00
2023-03-21T08:19:56.914Z,64.13
2023-03-21T08:20:56.898Z,64.33
2023-03-21T08:21:56.838Z,64.23
2023-03-21T08:22:56.794Z,64.43
2023-03-21T08:23:56.968Z,64.40
2023-03-21T08:24:56.785Z,64.30
2023-03-21T08:25:56.782Z,64.10
2023-03-21T08:26:56.733Z,64.07
2023-03-21T08:27:56.741Z,63.79
2023-03-21T08:28:56.725Z,63.66
2023-03-21T08:29:56.725Z,63.46
2023-03-21T08:30:56.803Z,63.46
2023-03-21T08:31:56.688Z,63.76
2023-03-21T08:32:58.831Z,63.56
2023-03-21T08:33:56.664Z,63.32
2023-03-21T08:34:56.624Z,63.15
2023-03-21T08:35:56.702Z,63.39
2023-03-21T08:36:56.591Z,63.29
2023-03-21T08:37:56.594Z,63.06
2023-03-21T08:38:56.656Z,62.24
2023-03-21T08:39:56.608Z,62.54
2023-03-21T08:40:58.582Z,62.48
2023-03-21T08:41:56.603Z,61.94
2023-03-21T08:42:56.548Z,62.04
2023-03-21T08:43:56.534Z,61.40
2023-03-21T08:44:56.514Z,60.59
2023-03-21T08:45:56.541Z,59.78
2023-03-21T08:46:56.455Z,59.99
2023-03-21T08:47:56.511Z,59.78
2023-03-21T08:48:56.461Z,59.78
2023-03-21T08:49:59.043Z,59.99
2023-03-21T08:50:56.426Z,60.31
2023-03-21T08:51:56.708Z,60.62
2023-03-21T08:52:56.390Z,60.39
2023-03-21T08:53:56.411Z,59.65
2023-03-21T08:54:56.389Z,58.94
2023-03-21T08:55:56.364Z,58.51
2023-03-21T08:56:56.344Z,59.12
2023-03-21T08:57:56.313Z,58.71
2023-03-21T08:58:56.328Z,58.51
2023-03-21T08:59:56.336Z,58.31
2023-03-21T09:00:56.254Z,58.00
2023-03-21T09:01:56.377Z,55.77
2023-03-21T09:02:56.245Z,55.50
2023-03-21T09:03:56.244Z,53.67
2023-03-21T09:04:56.277Z,54.38
2023-03-21T09:05:56.228Z,54.59
2023-03-21T09:06:56.307Z,53.34
2023-03-21T09:07:56.172Z,51.83
2023-03-21T09:08:56.164Z,51.42
2023-03-21T09:10:14.828Z,52.23
2023-03-21T09:10:57.190Z,53.63
2023-03-21T09:11:56.135Z,54.56
2023-03-21T09:12:56.094Z,53.85
2023-03-21T09:13:56.115Z,53.75
2023-03-21T09:14:56.175Z,53.65
2023-03-21T09:15:56.215Z,52.94
2023-03-21T09:16:56.082Z,52.13
2023-03-21T09:17:56.045Z,52.33
2023-03-21T09:18:56.058Z,51.42
2023-03-21T09:19:56.228Z,51.60
2023-03-21T09:20:56.058Z,51.40
2023-03-21T09:21:56.086Z,51.09
2023-03-21T09:22:56.045Z,51.17
2023-03-21T09:23:55.995Z,50.97
2023-03-21T09:24:56.120Z,50.46
2023-03-21T09:25:56.003Z,50.06
2023-03-21T09:26:55.916Z,50.34
2023-03-21T09:27:56.005Z,51.48
2023-03-21T09:28:56.063Z,52.08
2023-03-21T09:29:55.898Z,52.08
2023-03-21T09:31:11.762Z,52.08
2023-03-21T09:31:56.886Z,52.39
2023-03-21T09:32:56.071Z,52.26
2023-03-21T09:33:55.887Z,51.86
2023-03-21T09:35:04.568Z,50.14
2023-03-21T09:35:55.844Z,49.96
2023-03-21T09:36:55.866Z,50.57
2023-03-21T09:37:55.763Z,51.68
2023-03-21T09:38:55.796Z,51.88
2023-03-21T09:39:55.750Z,51.86
2023-03-21T09:40:55.733Z,51.76
2023-03-21T09:41:55.762Z,51.53
2023-03-21T09:42:55.890Z,50.92
2023-03-21T09:43:55.718Z,50.52
2023-03-21T09:44:55.748Z,50.72
2023-03-21T09:45:55.682Z,50.92
2023-03-21T09:46:55.690Z,51.03
2023-03-21T09:47:55.798Z,51.00
2023-03-21T09:48:57.506Z,50.29
2023-03-21T09:50:01.725Z,50.12
2023-03-21T09:50:56.616Z,50.59
2023-03-21T09:51:55.581Z,50.49
2023-03-21T09:52:55.561Z,50.39
2023-03-21T09:53:57.102Z,49.48
2023-03-21T09:54:55.600Z,48.55
2023-03-21T09:55:55.679Z,48.45
2023-03-21T09:56:55.574Z,48.65
2023-03-21T09:57:55.487Z,48.53
2023-03-21T09:58:55.541Z,48.33
2023-03-21T09:59:55.465Z,48.53
2023-03-21T10:00:55.640Z,48.73
2023-03-21T10:01:55.441Z,48.93
2023-03-21T10:02:57.464Z,49.24
2023-03-21T10:03:55.454Z,48.91
2023-03-21T10:04:55.481Z,49.01
2023-03-21T10:05:55.385Z,48.91
2023-03-21T10:06:55.426Z,49.01
2023-03-21T10:07:55.362Z,49.13
2023-03-21T10:08:57.085Z,49.24
2023-03-21T10:09:55.351Z,49.13
2023-03-21T10:10:55.308Z,49.33
2023-03-21T10:11:55.341Z,48.83
2023-03-21T10:12:55.426Z,49.24
2023-03-21T10:13:55.263Z,48.83
2023-03-21T10:14:57.525Z,48.33
2023-03-21T10:15:55.400Z,48.02
2023-03-21T10:16:55.274Z,48.85
2023-03-21T10:17:55.291Z,48.63
2023-03-21T10:18:55.227Z,48.22
2023-03-21T10:19:55.226Z,48.22
2023-03-21T10:20:55.294Z,48.13
2023-03-21T10:22:03.861Z,47.82
2023-03-21T10:22:56.144Z,47.92
2023-03-21T10:23:55.153Z,47.90
2023-03-21T10:24:55.113Z,47.70
2023-03-21T10:25:55.177Z,47.40
2023-03-21T10:26:55.145Z,47.90
2023-03-21T10:27:55.064Z,47.70
2023-03-21T10:28:55.089Z,47.70
2023-03-21T10:29:55.091Z,47.50
2023-03-21T10:30:55.065Z,47.17
2023-03-21T10:31:55.206Z,47.47
2023-03-21T10:32:55.082Z,47.67
2023-03-21T10:33:54.987Z,47.15
2023-03-21T10:35:55.042Z,46.42
2023-03-21T10:36:54.985Z,47.05
2023-03-21T10:37:55.007Z,47.47
2023-03-21T10:38:54.973Z,47.67
2023-03-21T10:39:54.918Z,47.80
2023-03-21T10:40:54.905Z,47.80
2023-03-21T10:41:54.915Z,48.00
2023-03-21T10:42:54.938Z,47.90
2023-03-21T10:43:54.921Z,47.78
2023-03-21T10:44:54.837Z,47.35
2023-03-21T10:45:55.029Z,47.25
2023-03-21T10:46:55.230Z,46.93
2023-03-21T10:47:55.023Z,47.33
2023-03-21T10:48:54.879Z,47.35
2023-03-21T10:50:11.024Z,47.58
2023-03-21T10:50:55.856Z,47.78
2023-03-21T10:51:54.750Z,47.88
2023-03-21T10:52:54.795Z,47.78
2023-03-21T10:53:54.727Z,48.30
2023-03-21T10:54:54.734Z,47.90
2023-03-21T10:55:54.743Z,47.80
2023-03-21T10:56:54.705Z,47.90
2023-03-21T10:57:54.665Z,47.90
2023-03-21T10:58:54.654Z,47.88
2023-03-21T10:59:54.667Z,47.25
2023-03-21T11:00:54.828Z,46.95
2023-03-21T11:01:54.709Z,46.95
2023-03-21T11:02:54.718Z,46.53
2023-03-21T11:03:54.622Z,46.30
2023-03-21T11:04:54.597Z,46.20
2023-03-21T11:05:54.616Z,46.53
2023-03-21T11:06:54.536Z,47.25
2023-03-21T11:07:54.623Z,47.75
2023-03-21T11:08:54.545Z,48.08
2023-03-21T11:09:54.523Z,48.08
2023-03-21T11:11:01.794Z,48.18
2023-03-21T11:11:54.509Z,48.26
2023-03-21T11:12:54.480Z,48.36
2023-03-21T11:13:54.531Z,48.64
2023-03-21T11:14:54.531Z,48.24
2023-03-21T11:15:54.454Z,47.71
2023-03-21T11:16:54.484Z,47.63
2023-03-21T11:17:54.497Z,48.06
2023-03-21T11:18:54.381Z,48.46
2023-03-21T11:19:54.430Z,48.46
2023-03-21T11:20:54.395Z,48.56
2023-03-21T11:21:54.499Z,48.56
2023-03-21T11:22:54.375Z,48.84
2023-03-21T11:23:54.398Z,48.34
2023-03-21T11:24:54.383Z,47.91
2023-03-21T11:25:54.317Z,47.91
2023-03-21T11:26:54.292Z,47.91
2023-03-21T11:27:54.308Z,47.49
2023-03-21T11:28:54.269Z,47.08
2023-03-21T11:29:54.236Z,47.20
2023-03-21T11:30:54.369Z,47.51
2023-03-21T11:31:54.358Z,47.83
2023-03-21T11:32:54.268Z,48.26
2023-03-21T11:33:54.299Z,48.14
2023-03-21T11:34:54.178Z,48.03
2023-03-21T11:35:54.198Z,47.83
2023-03-21T11:36:54.389Z,48.14
2023-03-21T11:37:54.275Z,48.01
2023-03-21T11:38:54.160Z,47.79
2023-03-21T11:39:54.106Z,47.49
2023-03-21T11:40:54.125Z,47.28
2023-03-21T11:41:54.087Z,47.06
2023-03-21T11:42:54.111Z,47.77
2023-03-21T11:43:54.131Z,47.16
2023-03-21T11:44:54.047Z,46.86
2023-03-21T11:45:54.039Z,46.96
2023-03-21T11:46:54.469Z,46.96
2023-03-21T11:47:54.085Z,47.49
2023-03-21T11:48:53.972Z,47.59
2023-03-21T11:50:04.226Z,47.41
2023-03-21T11:50:54.975Z,48.24
2023-03-21T11:51:53.966Z,48.46
2023-03-21T11:52:53.917Z,48.56
2023-03-21T11:53:54.918Z,48.34
2023-03-21T11:54:53.894Z,48.03
2023-03-21T11:55:53.994Z,48.03
2023-03-21T11:56:53.867Z,48.11
2023-03-21T11:57:54.853Z,48.21
2023-03-21T11:58:53.960Z,48.03
2023-03-21T11:59:53.843Z,48.11
2023-03-21T12:00:53.925Z,48.21
2023-03-21T12:01:53.867Z,47.71
2023-03-21T12:02:53.885Z,47.61
2023-03-21T12:03:55.017Z,47.69
2023-03-21T12:04:53.840Z,47.61
2023-03-21T12:05:53.775Z,48.21
2023-03-21T12:06:53.771Z,48.01
2023-03-21T12:07:53.804Z,47.89
2023-03-21T12:08:53.704Z,47.69
2023-03-21T12:09:53.739Z,47.77
2023-03-21T12:10:53.728Z,48.52
2023-03-21T12:11:53.694Z,49.77
2023-03-21T12:12:53.670Z,50.07
2023-03-21T12:13:53.689Z,50.57
2023-03-21T12:14:53.683Z,50.07
2023-03-21T12:15:55.435Z,50.57
2023-03-21T12:16:53.615Z,50.27
2023-03-21T12:17:53.625Z,50.40
2023-03-21T12:18:53.614Z,50.68
2023-03-21T12:19:53.624Z,50.27
2023-03-21T12:20:53.658Z,50.15
2023-03-21T12:21:54.848Z,50.85
2023-03-21T12:22:53.583Z,50.96
2023-03-21T12:23:53.522Z,51.38
2023-03-21T12:24:53.526Z,51.79
2023-03-21T12:25:53.502Z,52.31
2023-03-21T12:26:53.514Z,52.82
2023-03-21T12:27:53.469Z,53.12
2023-03-21T12:28:53.457Z,53.12
2023-03-21T12:29:53.425Z,53.02
2023-03-21T12:30:53.447Z,53.05
2023-03-21T12:31:53.565Z,52.84
2023-03-21T12:32:53.417Z,53.25
2023-03-21T12:33:53.417Z,52.84
2023-03-21T12:34:53.381Z,53.05
2023-03-21T12:35:53.390Z,52.94
2023-03-21T12:36:53.350Z,52.97
2023-03-21T12:37:54.996Z,53.47
2023-03-21T12:38:53.335Z,53.45
2023-03-21T12:39:53.302Z,53.14
2023-03-21T12:40:53.288Z,53.05
2023-03-21T12:41:53.249Z,53.25
2023-03-21T12:42:53.252Z,53.14
2023-03-21T12:43:55.255Z,53.75
2023-03-21T12:44:53.214Z,53.55
2023-03-21T12:45:53.228Z,53.34
2023-03-21T12:46:53.329Z,52.94
2023-03-21T12:47:53.240Z,53.05
2023-03-21T12:48:53.257Z,53.65
2023-03-21T12:49:55.193Z,53.58
2023-03-21T12:50:53.130Z,53.65
2023-03-21T12:51:53.167Z,53.88
2023-03-21T12:52:53.126Z,53.98
2023-03-21T12:53:53.120Z,54.99